createdAt,value
2018-06-25T00:01:48.318Z,96.33
2018-06-25T00:04:14.788Z,95.90
2018-06-25T00:06:41.247Z,95.92
2018-06-25T00:09:08.090Z,95.64
2018-06-25T00:11:34.694Z,95.60
2018-06-25T00:14:04.553Z,95.33
2018-06-25T00:16:34.562Z,95.38
2018-06-25T00:19:03.134Z,95.31
2018-06-25T00:21:31.330Z,95.70
2018-06-25T00:29:18.481Z,95.36
2018-06-25T00:31:45.289Z,95.54
2018-06-25T00:34:12.379Z,95.83
2018-06-25T00:36:38.834Z,96.01
2018-06-25T00:39:05.292Z,95.93
2018-06-25T00:41:32.100Z,96.00
2018-06-25T00:43:59.093Z,96.30
2018-06-25T00:46:25.766Z,96.15
2018-06-25T00:48:52.248Z,95.51
2018-06-25T00:51:19.234Z,95.59
2018-06-25T00:53:45.689Z,95.78
2018-06-25T00:56:12.145Z,95.58
2018-06-25T00:58:38.599Z,95.55
2018-06-25T01:01:05.522Z,95.84
2018-06-25T01:03:31.985Z,95.68
2018-06-25T01:05:58.486Z,95.90
2018-06-25T01:08:24.939Z,96.16
2018-06-25T01:10:51.960Z,96.09
2018-06-25T01:13:18.529Z,96.41
2018-06-25T01:15:44.989Z,96.43
2018-06-25T01:18:11.439Z,96.39
2018-06-25T01:20:38.232Z,96.12
2018-06-25T01:23:04.705Z,96.25
2018-06-25T01:25:31.157Z,95.86
2018-06-25T01:27:57.608Z,96.28
2018-06-25T01:30:24.355Z,95.87
2018-06-25T01:32:50.817Z,95.68
2018-06-25T01:35:17.275Z,95.93
2018-06-25T01:37:43.737Z,96.57
2018-06-25T01:40:10.494Z,96.75
2018-06-25T01:42:36.946Z,96.73
2018-06-25T01:45:03.446Z,96.79
2018-06-25T01:47:29.909Z,97.01
2018-06-25T01:49:56.838Z,96.96
2018-06-25T01:52:24.621Z,96.69
2018-06-25T01:54:51.101Z,97.25
2018-06-25T01:57:17.553Z,96.99
2018-06-25T01:59:44.505Z,97.18
2018-06-25T02:02:10.955Z,97.06
2018-06-25T02:04:37.402Z,97.05
2018-06-25T02:07:03.861Z,97.48
2018-06-25T02:09:30.666Z,97.13
2018-06-25T02:11:57.153Z,97.40
2018-06-25T02:14:23.609Z,97.43
2018-06-25T02:16:50.075Z,97.83
2018-06-25T02:19:16.921Z,97.97
2018-06-25T02:21:43.381Z,97.97
2018-06-25T02:24:10.213Z,97.23
2018-06-25T02:26:37.063Z,97.15
2018-06-25T02:29:03.521Z,96.89
2018-06-25T02:31:31.167Z,97.34
2018-06-25T02:33:57.700Z,97.25
2018-06-25T02:36:24.716Z,97.89
2018-06-25T02:38:51.208Z,97.92
2018-06-25T02:41:17.698Z,97.86
2018-06-25T02:43:45.377Z,98.12
2018-06-25T02:46:11.901Z,97.89
2018-06-25T02:48:38.498Z,98.10
2018-06-25T02:51:05.371Z,97.64
2018-06-25T02:53:32.015Z,97.43
2018-06-25T02:55:58.501Z,97.60
2018-06-25T02:58:25.457Z,97.07
2018-06-25T03:00:51.935Z,97.30
2018-06-25T03:03:18.394Z,97.02
2018-06-25T03:05:44.850Z,97.20
2018-06-25T03:08:11.605Z,97.12
2018-06-25T03:10:38.062Z,97.81
2018-06-25T03:13:04.545Z,97.55
2018-06-25T03:15:31.495Z,97.36
2018-06-25T03:17:57.941Z,97.40
2018-06-25T03:20:24.417Z,97.39
2018-06-25T03:22:50.881Z,97.43
2018-06-25T03:25:17.843Z,97.46
2018-06-25T03:27:44.409Z,97.47
2018-06-25T03:30:10.955Z,97.55
2018-06-25T03:32:37.588Z,97.29
2018-06-25T03:35:04.377Z,96.68
2018-06-25T03:37:30.833Z,97.21
2018-06-25T03:39:57.308Z,96.71
2018-06-25T03:42:23.758Z,96.67
2018-06-25T03:44:50.534Z,97.14
2018-06-25T03:47:16.994Z,96.96
2018-06-25T03:49:43.462Z,96.88
2018-06-25T03:52:09.943Z,96.82
2018-06-25T03:54:36.853Z,97.13
2018-06-25T03:57:03.730Z,96.96
2018-06-25T03:59:30.419Z,96.68
2018-06-25T04:01:56.933Z,96.90
2018-06-25T04:04:23.822Z,96.86
2018-06-25T04:06:50.283Z,96.88
2018-06-25T04:09:16.769Z,97.26
2018-06-25T04:11:43.213Z,97.12
2018-06-25T04:14:10.046Z,97.08
2018-06-25T04:16:36.508Z,96.59
2018-06-25T04:19:02.986Z,97.06
2018-06-25T04:21:29.445Z,96.82
2018-06-25T04:23:56.309Z,96.55
2018-06-25T04:26:22.777Z,96.31
2018-06-25T04:28:49.260Z,96.74
2018-06-25T04:31:16.336Z,96.65
2018-06-25T04:33:42.807Z,96.72
2018-06-25T04:36:09.289Z,97.01
2018-06-25T04:38:35.768Z,96.73
2018-06-25T04:41:02.559Z,96.57
2018-06-25T04:43:30.497Z,96.75
2018-06-25T04:45:56.965Z,96.64
2018-06-25T04:48:23.437Z,96.69
2018-06-25T04:50:50.346Z,96.93
2018-06-25T04:53:16.810Z,96.80
2018-06-25T04:55:43.276Z,96.85
2018-06-25T04:58:10.037Z,96.85
2018-06-25T05:00:36.776Z,96.47
2018-06-25T05:03:03.232Z,96.57
2018-06-25T05:05:30.143Z,96.81
2018-06-25T05:07:56.602Z,96.66
2018-06-25T05:10:23.058Z,95.62
2018-06-25T05:12:49.871Z,95.66
2018-06-25T05:15:16.328Z,96.05
2018-06-25T05:17:42.890Z,96.11
2018-06-25T05:20:09.650Z,95.62
2018-06-25T05:22:36.171Z,95.78
2018-06-25T05:25:02.643Z,95.44
2018-06-25T05:27:30.017Z,95.64
2018-06-25T05:29:56.487Z,95.45
2018-06-25T05:32:22.949Z,95.11
2018-06-25T05:34:49.802Z,95.49
2018-06-25T05:37:16.284Z,95.31
2018-06-25T05:39:43.682Z,95.25
2018-06-25T05:42:10.430Z,95.16
2018-06-25T05:44:36.898Z,95.35
2018-06-25T05:47:03.397Z,95.63
2018-06-25T05:49:30.293Z,95.51
2018-06-25T05:51:56.861Z,94.32
2018-06-25T05:54:23.460Z,95.19
2018-06-25T05:56:50.042Z,94.59
2018-06-25T05:59:16.721Z,94.52
2018-06-25T06:01:43.701Z,94.45
2018-06-25T06:04:10.165Z,95.29
2018-06-25T06:06:36.609Z,95.25
2018-06-25T06:09:03.603Z,95.25
2018-06-25T06:11:30.709Z,94.38
2018-06-25T06:13:57.224Z,94.33
2018-06-25T06:16:24.063Z,94.52
2018-06-25T06:18:50.514Z,94.78
2018-06-25T06:21:18.193Z,94.39
2018-06-25T06:23:45.861Z,93.97
2018-06-25T06:26:13.941Z,93.92
2018-06-25T06:28:43.020Z,93.82
2018-06-25T06:31:09.834Z,92.96
2018-06-25T06:33:36.305Z,92.87
2018-06-25T06:36:02.770Z,92.72
2018-06-25T06:38:29.765Z,92.89
2018-06-25T06:40:56.299Z,92.81
2018-06-25T06:43:24.007Z,92.01
2018-06-25T06:45:50.780Z,90.88
2018-06-25T06:48:17.241Z,90.93
2018-06-25T06:50:43.717Z,90.17
2018-06-25T06:53:10.461Z,90.21
2018-06-25T06:55:36.922Z,90.82
2018-06-25T06:58:03.378Z,90.79
2018-06-25T07:00:30.274Z,91.32
2018-06-25T07:02:56.749Z,92.51
2018-06-25T07:05:23.207Z,92.45
2018-06-25T07:07:49.956Z,92.29
2018-06-25T07:10:16.427Z,93.31
2018-06-25T07:12:42.917Z,93.12
2018-06-25T07:15:09.669Z,92.33
2018-06-25T07:17:36.377Z,92.15
2018-06-25T07:20:02.837Z,91.56
2018-06-25T07:22:29.618Z,91.43
2018-06-25T07:24:56.107Z,91.04
2018-06-25T07:27:22.554Z,90.78
2018-06-25T07:29:49.334Z,90.85
2018-06-25T07:32:16.810Z,91.87
2018-06-25T07:34:43.266Z,91.23
2018-06-25T07:37:10.029Z,91.28
2018-06-25T07:39:36.506Z,90.33
2018-06-25T07:42:03.572Z,88.12
2018-06-25T07:44:30.305Z,88.22
2018-06-25T07:46:57.415Z,87.52
2018-06-25T07:49:27.536Z,87.84
2018-06-25T07:51:54.272Z,86.34
2018-06-25T07:54:20.740Z,87.08
2018-06-25T07:56:47.185Z,87.98
2018-06-25T07:59:13.953Z,89.97
2018-06-25T08:01:40.425Z,90.50
2018-06-25T08:04:06.970Z,91.53
2018-06-25T08:06:34.030Z,90.66
2018-06-25T08:09:00.492Z,91.13
2018-06-25T08:11:26.953Z,90.37
2018-06-25T08:13:54.393Z,90.12
2018-06-25T08:16:20.935Z,87.22
2018-06-25T08:18:47.380Z,86.88
2018-06-25T08:21:14.383Z,85.92
2018-06-25T08:23:40.860Z,84.55
2018-06-25T08:26:07.315Z,86.07
2018-06-25T08:28:34.304Z,86.50
2018-06-25T08:31:00.768Z,87.53
2018-06-25T08:33:27.228Z,87.72
2018-06-25T08:35:54.004Z,88.99
2018-06-25T08:38:20.461Z,88.96
2018-06-25T08:40:46.926Z,89.18
2018-06-25T08:43:13.673Z,89.80
2018-06-25T08:45:40.121Z,88.59
2018-06-25T08:48:06.589Z,85.66
2018-06-25T08:50:33.329Z,83.68
2018-06-25T08:52:59.782Z,84.07
2018-06-25T08:55:26.230Z,81.75
2018-06-25T08:57:52.704Z,80.85
2018-06-25T09:00:19.169Z,80.28
2018-06-25T09:02:45.934Z,80.13
2018-06-25T09:05:12.400Z,81.53
2018-06-25T09:07:38.873Z,79.68
2018-06-25T09:10:05.633Z,79.28
2018-06-25T09:12:32.757Z,79.70
2018-06-25T09:14:59.222Z,76.56
2018-06-25T09:17:27.393Z,77.52
2018-06-25T09:19:53.858Z,79.14
2018-06-25T09:22:20.317Z,78.46
2018-06-25T09:24:47.073Z,79.60
2018-06-25T09:27:13.535Z,80.48
2018-06-25T09:29:39.999Z,81.02
2018-06-25T09:32:06.748Z,83.03
2018-06-25T09:34:33.210Z,79.40
2018-06-25T09:37:00.573Z,77.91
2018-06-25T09:39:27.321Z,77.55
2018-06-25T09:41:54.415Z,75.76
2018-06-25T09:44:21.645Z,73.77
2018-06-25T09:46:48.401Z,73.83
2018-06-25T09:49:14.862Z,74.08
2018-06-25T09:51:41.324Z,74.84
2018-06-25T09:54:08.179Z,72.21
2018-06-25T09:56:34.635Z,75.64
2018-06-25T09:59:01.089Z,74.80
2018-06-25T10:01:27.916Z,74.90
2018-06-25T10:03:54.628Z,74.95
2018-06-25T10:06:21.085Z,75.91
2018-06-25T10:08:47.836Z,76.84
2018-06-25T10:11:14.293Z,76.60
2018-06-25T10:13:41.436Z,77.05
2018-06-25T10:16:08.177Z,77.18
2018-06-25T10:18:34.641Z,75.09
2018-06-25T10:21:01.093Z,74.44
2018-06-25T10:23:28.286Z,74.78
2018-06-25T10:25:54.738Z,74.22
2018-06-25T10:28:21.199Z,73.37
2018-06-25T10:30:48.233Z,74.41
2018-06-25T10:33:14.689Z,75.08
2018-06-25T10:35:41.668Z,74.43
2018-06-25T10:38:09.330Z,75.42
2018-06-25T10:40:36.503Z,75.63
2018-06-25T10:43:03.249Z,75.24
2018-06-25T10:45:32.445Z,76.53
2018-06-25T10:47:59.689Z,77.62
2018-06-25T10:50:26.306Z,77.91
2018-06-25T10:52:54.038Z,76.89
2018-06-25T10:55:21.205Z,77.03
2018-06-25T10:57:47.684Z,77.38
2018-06-25T11:00:14.685Z,77.52
2018-06-25T11:02:42.649Z,77.04
2018-06-25T11:05:09.616Z,74.40
2018-06-25T11:07:36.458Z,75.53
2018-06-25T11:10:02.907Z,76.34
2018-06-25T11:12:29.373Z,76.40
2018-06-25T11:14:56.257Z,75.25
2018-06-25T11:17:22.723Z,75.22
2018-06-25T11:19:49.537Z,74.08
2018-06-25T11:22:17.302Z,74.09
2018-06-25T11:24:43.766Z,73.69
2018-06-25T11:27:10.423Z,73.33
2018-06-25T11:29:37.034Z,72.42
2018-06-25T11:32:03.498Z,71.08
2018-06-25T11:34:32.174Z,68.71
2018-06-25T11:36:59.168Z,67.46
2018-06-25T11:39:25.633Z,67.00
2018-06-25T11:41:52.140Z,65.94
2018-06-25T11:44:18.913Z,69.30
2018-06-25T11:46:45.382Z,68.90
2018-06-25T11:49:11.846Z,68.90
2018-06-25T11:51:40.427Z,69.21
2018-06-25T11:54:08.409Z,67.56
2018-06-25T11:56:34.877Z,65.13
2018-06-25T11:59:01.817Z,63.24
2018-06-25T12:01:28.699Z,59.29
2018-06-25T12:03:55.234Z,58.46
2018-06-25T12:06:21.989Z,60.27
2018-06-25T12:08:50.918Z,59.96
2018-06-25T12:11:17.427Z,61.92
2018-06-25T12:13:48.751Z,63.21
2018-06-25T12:16:15.281Z,63.96
2018-06-25T12:18:42.486Z,62.85
2018-06-25T12:21:09.289Z,63.30
2018-06-25T12:23:36.214Z,63.72
2018-06-25T12:26:03.707Z,62.88
2018-06-25T12:28:32.669Z,62.01
2018-06-25T12:30:59.721Z,60.93
2018-06-25T12:33:28.631Z,58.65
2018-06-25T12:35:55.664Z,58.25
2018-06-25T12:38:23.175Z,57.55
2018-06-25T12:40:51.069Z,57.00
2018-06-25T12:43:17.879Z,56.47
2018-06-25T12:48:17.075Z,60.56
2018-06-25T12:50:44.620Z,61.48
2018-06-25T12:53:12.366Z,61.66
2018-06-25T12:55:39.180Z,59.76
2018-06-25T12:58:05.653Z,58.90
2018-06-25T13:00:34.295Z,56.25
2018-06-25T13:03:01.784Z,55.25
2018-06-25T13:05:31.761Z,55.28
2018-06-25T13:07:58.423Z,55.14
2018-06-25T13:10:25.333Z,55.46
2018-06-25T13:12:51.820Z,56.73
2018-06-25T13:15:21.621Z,57.97
2018-06-25T13:17:48.381Z,56.78
2018-06-25T13:20:14.847Z,56.94
2018-06-25T13:22:42.832Z,56.15
2018-06-25T13:25:10.463Z,55.01
2018-06-25T13:27:36.976Z,54.87
2018-06-25T13:30:03.441Z,54.71
2018-06-25T13:32:30.308Z,54.19
2018-06-25T13:34:56.772Z,55.68
2018-06-25T13:37:23.229Z,52.04
2018-06-25T13:39:50.172Z,49.82
2018-06-25T13:42:16.630Z,48.07
2018-06-25T13:44:43.113Z,49.17
2018-06-25T13:47:09.846Z,48.25
2018-06-25T13:49:36.293Z,47.50
2018-06-25T13:52:03.419Z,49.93
2018-06-25T13:57:16.210Z,50.51
2018-06-25T13:59:48.825Z,50.55
2018-06-25T14:04:59.068Z,48.88
2018-06-25T14:07:26.423Z,47.05
2018-06-25T14:09:56.539Z,46.80
2018-06-25T14:12:23.306Z,48.02
2018-06-25T14:14:50.453Z,46.12
2018-06-25T14:17:16.917Z,48.19
2018-06-25T14:19:47.378Z,47.55
2018-06-25T14:22:13.838Z,48.30
2018-06-25T14:24:40.422Z,51.08
2018-06-25T14:27:07.309Z,51.43
2018-06-25T14:29:33.767Z,50.68
2018-06-25T14:32:00.742Z,51.99
2018-06-25T14:34:27.515Z,49.75
2018-06-25T14:36:53.977Z,48.65
2018-06-25T14:39:20.457Z,46.67
2018-06-25T14:41:48.710Z,45.57
2018-06-25T14:44:15.188Z,44.45
2018-06-25T14:46:41.643Z,45.87
2018-06-25T14:49:09.365Z,44.91
2018-06-25T14:51:35.817Z,42.98
2018-06-25T14:54:04.192Z,43.53
2018-06-25T14:56:30.956Z,42.05
2018-06-25T14:58:57.424Z,42.30
2018-06-25T15:01:24.520Z,40.71
2018-06-25T15:03:51.915Z,43.00
2018-06-25T15:06:18.404Z,45.04
2018-06-25T15:08:53.385Z,42.55
2018-06-25T15:11:21.206Z,43.71
2018-06-25T15:13:49.105Z,45.26
2018-06-25T15:16:15.564Z,45.89
2018-06-25T15:18:42.323Z,47.60
2018-06-25T15:21:08.776Z,47.45
2018-06-25T15:23:35.245Z,41.03
2018-06-25T15:26:02.076Z,43.44
2018-06-25T15:28:28.543Z,44.69
2018-06-25T15:30:55.272Z,46.47
2018-06-25T15:33:24.435Z,46.91
2018-06-25T15:35:51.693Z,46.82
2018-06-25T15:38:18.142Z,46.25
2018-06-25T15:40:44.935Z,45.94
2018-06-25T15:43:11.386Z,46.11
2018-06-25T15:45:37.861Z,46.04
2018-06-25T15:48:04.790Z,44.10
2018-06-25T15:50:31.248Z,40.72
2018-06-25T15:52:58.381Z,44.20
2018-06-25T15:55:25.955Z,45.21
2018-06-25T15:57:52.412Z,46.64
2018-06-25T16:00:18.868Z,46.65
2018-06-25T16:02:46.274Z,46.82
2018-06-25T16:05:12.725Z,46.62
2018-06-25T16:07:39.446Z,44.32
2018-06-25T16:10:06.191Z,39.04
2018-06-25T16:12:32.637Z,35.85
2018-06-25T16:15:00.574Z,37.05
2018-06-25T16:17:27.336Z,38.36
2018-06-25T16:19:53.845Z,39.48
2018-06-25T16:22:21.321Z,38.36
2018-06-25T16:24:48.337Z,36.96
2018-06-25T16:27:14.811Z,34.49
2018-06-25T16:29:41.285Z,35.12
2018-06-25T16:32:08.028Z,35.08
2018-06-25T16:34:37.176Z,35.46
2018-06-25T16:37:04.572Z,34.80
2018-06-25T16:39:34.840Z,34.53
2018-06-25T16:42:01.321Z,39.67
2018-06-25T16:44:27.782Z,41.98
2018-06-25T16:46:54.521Z,44.29
2018-06-25T16:49:20.983Z,44.20
2018-06-25T16:51:47.441Z,41.98
2018-06-25T16:54:14.196Z,40.30
2018-06-25T16:56:40.651Z,37.90
2018-06-25T16:59:07.119Z,37.12
2018-06-25T17:01:35.122Z,37.26
2018-06-25T17:04:01.588Z,34.66
2018-06-25T17:06:28.053Z,34.91
2018-06-25T17:08:55.423Z,34.58
2018-06-25T17:11:23.079Z,34.46
2018-06-25T17:13:49.568Z,38.04
2018-06-25T17:16:16.346Z,40.35
2018-06-25T17:18:43.794Z,41.35
2018-06-25T17:21:10.569Z,42.61
2018-06-25T17:23:37.385Z,43.36
2018-06-25T17:26:03.996Z,43.44
2018-06-25T17:28:30.473Z,42.97
2018-06-25T17:30:58.323Z,44.52
2018-06-25T17:33:24.851Z,44.48
2018-06-25T17:35:51.401Z,42.97
2018-06-25T17:38:18.237Z,39.79
2018-06-25T17:40:44.689Z,36.91
2018-06-25T17:43:11.453Z,36.04
2018-06-25T17:45:38.313Z,34.85
2018-06-25T17:48:04.992Z,36.20
2018-06-25T17:50:32.447Z,35.05
2018-06-25T17:53:00.005Z,36.21
2018-06-25T17:55:27.251Z,36.07
2018-06-25T17:57:54.178Z,35.33
2018-06-25T18:00:25.463Z,36.01
2018-06-25T18:02:51.925Z,35.05
2018-06-25T18:05:18.544Z,35.55
2018-06-25T18:07:45.360Z,36.11
2018-06-25T18:10:12.073Z,34.51
2018-06-25T18:12:39.160Z,34.45
2018-06-25T18:15:06.198Z,34.47
